Change the Weather History Date:

Tuesday, February 19, 2013

  Actual Average Record
Temperature  
Mean Temperature 6 °F -  
Max Temperature 12 °F 33 °F 64 °F (1954)
Min Temperature 1 °F 14 °F -15 °F (1959)
Degree Days  
Heating Degree Days 58    
Moisture  
Dew Point -2 °F    
Average Humidity 67    
Maximum Humidity 92    
Minimum Humidity 48    
Precipitation  
Precipitation 0.00 in - - ()
Sea Level Pressure  
Sea Level Pressure 30.29 in    
Wind  
Wind Speed 21 mph (NW)    
Max Wind Speed 30 mph    
Max Gust Speed 37 mph    
Visibility 10 miles    
Events      
Averages and records for this station are not official NWS values.
T = Trace of Precipitation, MM = Missing Value Source: NWS Daily Summary

Daily Weather History Graph

Daily Weather History Graph

Search for Another Location

Airport or City:

Trip Planner

Search our weather history database for the weather conditions in past years. The results will help you decide how hot, cold, wet, or windy it might be!

Date:

Astronomy

Feb. 19, 2013 Rise Set
Actual Time 7:20 AM CST 6:06 PM CST
Civil Twilight 6:51 AM CST 6:35 PM CST
Nautical Twilight 6:18 AM CST 7:08 PM CST
Astronomical Twilight 5:46 AM CST 7:41 PM CST
Moon 12:34 PM CST (2/19) 2:58 AM CST (2/19)
Length of Visible Light 11h 43m
Length of Day
10h 45m
Waxing Gibbous, 67% of the Moon is Illuminated
Feb 19
Waxing Gibbous
Feb 25
Full
Mar 4
Last Quarter
Mar 11
New
Mar 19
First Quarter

Hourly Weather History & Observations

Time (CST) Temp. Windchill Dew Point Humidity Pressure Visibility Wind Dir Wind Speed Gust Speed Precip Events Conditions
12:15 AM 8.6 °F -14.1 °F 1.4 °F 73% 30.11 in 10.0 mi WNW 29.9 mph 36.8 mph N/A   Clear
12:35 AM 8.6 °F -12.3 °F 1.4 °F 73% 30.12 in 10.0 mi WNW 24.2 mph 34.5 mph N/A   Mostly Cloudy
12:55 AM 8.6 °F -12.7 °F 1.4 °F 73% 30.14 in 10.0 mi WNW 25.3 mph 32.2 mph N/A   Overcast
1:15 AM 8.6 °F -11.0 °F 1.4 °F 73% 30.14 in 10.0 mi WNW 20.7 mph 31.1 mph N/A   Overcast
1:35 AM 8.6 °F -10.0 °F 1.4 °F 73% 30.15 in 10.0 mi NW 18.4 mph 29.9 mph N/A   Overcast
1:55 AM 8.6 °F -12.3 °F 1.4 °F 73% 30.15 in 10.0 mi NW 24.2 mph 32.2 mph N/A   Overcast
2:15 AM 8.6 °F -10.5 °F 1.4 °F 73% 30.16 in 10.0 mi NW 19.6 mph 34.5 mph N/A   Overcast
2:35 AM 8.6 °F -11.9 °F 1.4 °F 73% 30.17 in 10.0 mi WNW 23.0 mph 29.9 mph N/A   Overcast
2:55 AM 8.6 °F -11.9 °F 3.2 °F 79% 30.17 in 10.0 mi NW 23.0 mph 28.8 mph N/A   Overcast
3:15 AM 8.6 °F -12.3 °F 1.4 °F 73% 30.18 in 10.0 mi WNW 24.2 mph 27.6 mph N/A   Overcast
3:35 AM 8.6 °F -12.3 °F 1.4 °F 73% 30.18 in 10.0 mi WNW 24.2 mph 28.8 mph N/A   Overcast
3:55 AM 8.6 °F -11.9 °F 1.4 °F 73% 30.18 in 10.0 mi NW 23.0 mph 32.2 mph N/A   Overcast
4:15 AM 6.8 °F -15.9 °F 1.4 °F 79% 30.19 in 9.0 mi WNW 27.6 mph 32.2 mph N/A   Overcast
4:35 AM 6.8 °F -15.9 °F -0.4 °F 72% 30.19 in 10.0 mi WNW 27.6 mph 32.2 mph N/A   Overcast
4:55 AM 6.8 °F -13.8 °F -0.4 °F 72% 30.21 in 10.0 mi WNW 21.9 mph 28.8 mph N/A   Scattered Clouds
5:15 AM 6.8 °F -13.4 °F -0.4 °F 72% 30.22 in 10.0 mi WNW 20.7 mph 31.1 mph N/A   Scattered Clouds
5:55 AM 5.0 °F -16.7 °F -0.4 °F 78% 30.23 in 10.0 mi WNW 23.0 mph 28.8 mph N/A   Mostly Cloudy
6:15 AM 3.2 °F -17.1 °F -2.2 °F 78% 30.25 in 8.0 mi WNW 18.4 mph 26.5 mph N/A   Mostly Cloudy
6:35 AM 3.2 °F -18.6 °F -2.2 °F 78% 30.25 in 10.0 mi WNW 21.9 mph 31.1 mph N/A   Mostly Cloudy
6:55 AM 3.2 °F -19.5 °F -2.2 °F 78% 30.25 in 10.0 mi WNW 24.2 mph 29.9 mph N/A   Clear
7:15 AM 1.4 °F -21.0 °F -4.0 °F 78% 30.27 in 10.0 mi NW 21.9 mph 28.8 mph N/A   Clear
7:35 AM 1.4 °F -20.5 °F -2.2 °F 85% 30.27 in 10.0 mi WNW 20.7 mph 24.2 mph N/A   Clear
7:55 AM 1.4 °F -20.5 °F -4.0 °F 78% 30.28 in 10.0 mi WNW 20.7 mph 28.8 mph N/A   Clear
8:15 AM 1.4 °F -21.4 °F -2.2 °F 85% 30.29 in 10.0 mi WNW 23.0 mph 26.5 mph N/A   Clear
8:35 AM 3.2 °F -19.5 °F -4.0 °F 72% 30.30 in 10.0 mi WNW 24.2 mph 28.8 mph N/A   Clear
8:55 AM 3.2 °F -19.0 °F -4.0 °F 72% 30.31 in 10.0 mi WNW 23.0 mph - N/A   Clear
9:35 AM 3.2 °F -18.1 °F -2.2 °F 78% 30.32 in 10.0 mi WNW 20.7 mph - N/A   Clear
9:55 AM 5.0 °F -15.7 °F -4.0 °F 66% 30.33 in 10.0 mi WNW 20.7 mph - N/A   Clear
10:15 AM 5.0 °F -16.2 °F -4.0 °F 66% 30.33 in 10.0 mi WNW 21.9 mph 25.3 mph N/A   Clear
10:35 AM 6.8 °F -13.4 °F -4.0 °F 61% 30.33 in 10.0 mi NW 20.7 mph 26.5 mph N/A   Clear
10:55 AM 6.8 °F -14.3 °F -2.2 °F 67% 30.34 in 10.0 mi WNW 23.0 mph - N/A   Clear
11:15 AM 8.6 °F -10.5 °F -2.2 °F 62% 30.34 in 10.0 mi WNW 19.6 mph - N/A   Clear
11:35 AM 8.6 °F -9.5 °F -2.2 °F 62% 30.35 in 10.0 mi WNW 17.3 mph 24.2 mph N/A   Clear
12:15 PM 10.4 °F -8.6 °F -2.2 °F 57% 30.35 in 10.0 mi WNW 20.7 mph 27.6 mph N/A   Clear
12:35 PM 10.4 °F -8.6 °F -4.0 °F 52% 30.34 in 10.0 mi WNW 20.7 mph 25.3 mph N/A   Clear
12:55 PM 10.4 °F -8.6 °F -2.2 °F 57% 30.34 in 10.0 mi WNW 20.7 mph - N/A   Clear
1:15 PM 12.2 °F -5.8 °F -0.4 °F 57% 30.34 in 10.0 mi NW 19.6 mph 24.2 mph N/A   Clear
1:35 PM 12.2 °F -6.7 °F -0.4 °F 57% 30.34 in 10.0 mi WNW 21.9 mph 26.5 mph N/A   Clear
1:55 PM 12.2 °F -5.3 °F -0.4 °F 57% 30.34 in 10.0 mi NW 18.4 mph 24.2 mph N/A   Clear
2:15 PM 12.2 °F -6.3 °F -0.4 °F 57% 30.33 in 10.0 mi WNW 20.7 mph 25.3 mph N/A   Clear
2:35 PM 12.2 °F -4.3 °F -2.2 °F 53% 30.33 in 10.0 mi WNW 16.1 mph 23.0 mph N/A   Clear
2:55 PM 12.2 °F -3.7 °F -0.4 °F 57% 30.33 in 10.0 mi NW 15.0 mph 24.2 mph N/A   Clear
3:15 PM 12.2 °F -5.3 °F -2.2 °F 53% 30.32 in 10.0 mi NW 18.4 mph 23.0 mph N/A   Clear
3:35 PM 12.2 °F -3.7 °F -2.2 °F 53% 30.33 in 10.0 mi NW 15.0 mph 20.7 mph N/A   Clear
3:55 PM 12.2 °F -3.1 °F -4.0 °F 48% 30.33 in 10.0 mi NW 13.8 mph 18.4 mph N/A   Clear
4:15 PM 12.2 °F -2.5 °F -2.2 °F 53% 30.33 in 10.0 mi NW 12.7 mph - N/A   Clear
4:35 PM 12.2 °F -3.1 °F -2.2 °F 53% 30.33 in 10.0 mi NNW 13.8 mph - N/A   Clear
4:55 PM 12.2 °F -3.1 °F -2.2 °F 53% 30.33 in 10.0 mi NW 13.8 mph - N/A   Clear
5:15 PM 12.2 °F -2.5 °F -4.0 °F 48% 30.33 in 10.0 mi NW 12.7 mph - N/A   Clear
6:35 PM 8.6 °F -6.3 °F -4.0 °F 57% 30.33 in 10.0 mi NW 11.5 mph - N/A   Clear
6:55 PM 6.8 °F -8.6 °F -5.8 °F 56% 30.33 in 10.0 mi NNW 11.5 mph - N/A   Clear
7:15 PM 6.8 °F -6.9 °F -2.2 °F 67% 30.33 in 10.0 mi NNW 9.2 mph - N/A   Clear
7:35 PM 6.8 °F -8.6 °F -2.2 °F 67% 30.35 in 10.0 mi NNW 11.5 mph - N/A   Clear
7:55 PM 5.0 °F -11.6 °F -2.2 °F 72% 30.34 in 10.0 mi NNW 12.7 mph - N/A   Clear
8:15 PM 3.2 °F -13.9 °F -4.0 °F 72% 30.34 in 10.0 mi North 12.7 mph - N/A   Clear
8:35 PM 3.2 °F -13.1 °F -5.8 °F 66% 30.34 in 10.0 mi NNW 11.5 mph - N/A   Clear
9:15 PM 3.2 °F -10.3 °F -4.0 °F 72% 30.35 in 10.0 mi NNW 8.1 mph - N/A   Clear
9:35 PM 1.4 °F -12.5 °F -7.6 °F 66% 30.35 in 10.0 mi North 8.1 mph - N/A   Clear
9:55 PM 1.4 °F -8.3 °F -4.0 °F 78% 30.36 in 10.0 mi NW 4.6 mph - N/A   Clear
10:15 PM 1.4 °F -8.3 °F -7.6 °F 66% 30.37 in 10.0 mi NNW 4.6 mph - N/A   Clear
10:35 PM 1.4 °F -11.3 °F -7.6 °F 66% 30.36 in 10.0 mi North 6.9 mph - N/A   Clear
10:55 PM 1.4 °F -9.9 °F -7.6 °F 66% 30.36 in 10.0 mi NNW 5.8 mph - N/A   Clear
11:15 PM 1.4 °F -9.9 °F -0.4 °F 92% 30.37 in 10.0 mi NNW 5.8 mph - N/A   Clear
11:35 PM 1.4 °F -8.3 °F -7.6 °F 66% 30.38 in 10.0 mi West 4.6 mph - N/A   Clear
11:55 PM 1.4 °F -9.9 °F -9.4 °F 61% 30.39 in 10.0 mi West 5.8 mph - N/A   Clear